sensor_id;sensor_type;location;lat;lon;timestamp;P1;durP1;ratioP1;P2;durP2;ratioP2
3211;SDS011;1618;47.056;15.472;2023-04-19T00:00:34;5.30;;;5.00;;
3211;SDS011;1618;47.056;15.472;2023-04-19T00:03:04;5.40;;;5.17;;
3211;SDS011;1618;47.056;15.472;2023-04-19T00:05:34;6.37;;;5.97;;
3211;SDS011;1618;47.056;15.472;2023-04-19T00:08:02;6.60;;;6.20;;
3211;SDS011;1618;47.056;15.472;2023-04-19T00:10:31;6.90;;;6.50;;
3211;SDS011;1618;47.056;15.472;2023-04-19T00:13:02;6.70;;;6.30;;
3211;SDS011;1618;47.056;15.472;2023-04-19T00:15:31;6.50;;;6.00;;
3211;SDS011;1618;47.056;15.472;2023-04-19T00:18:03;6.70;;;6.40;;
3211;SDS011;1618;47.056;15.472;2023-04-19T00:20:30;6.97;;;6.60;;
3211;SDS011;1618;47.056;15.472;2023-04-19T00:23:00;7.17;;;6.60;;
3211;SDS011;1618;47.056;15.472;2023-04-19T00:25:29;8.00;;;7.60;;
3211;SDS011;1618;47.056;15.472;2023-04-19T00:27:59;8.20;;;7.80;;
3211;SDS011;1618;47.056;15.472;2023-04-19T00:30:33;9.10;;;8.70;;
3211;SDS011;1618;47.056;15.472;2023-04-19T00:33:02;10.73;;;10.13;;
3211;SDS011;1618;47.056;15.472;2023-04-19T00:35:29;12.10;;;11.40;;
3211;SDS011;1618;47.056;15.472;2023-04-19T00:38:02;12.33;;;11.63;;
3211;SDS011;1618;47.056;15.472;2023-04-19T00:40:36;11.20;;;10.70;;
3211;SDS011;1618;47.056;15.472;2023-04-19T00:43:04;10.63;;;10.03;;
3211;SDS011;1618;47.056;15.472;2023-04-19T00:45:36;10.27;;;9.77;;
3211;SDS011;1618;47.056;15.472;2023-04-19T00:48:04;11.77;;;11.17;;
3211;SDS011;1618;47.056;15.472;2023-04-19T00:50:33;12.83;;;12.10;;
3211;SDS011;1618;47.056;15.472;2023-04-19T00:53:02;11.40;;;10.80;;
3211;SDS011;1618;47.056;15.472;2023-04-19T00:55:30;10.57;;;10.07;;
3211;SDS011;1618;47.056;15.472;2023-04-19T00:57:57;12.10;;;11.50;;
3211;SDS011;1618;47.056;15.472;2023-04-19T01:00:26;13.20;;;12.50;;
3211;SDS011;1618;47.056;15.472;2023-04-19T01:02:54;12.63;;;12.00;;
3211;SDS011;1618;47.056;15.472;2023-04-19T01:05:24;12.40;;;11.80;;
3211;SDS011;1618;47.056;15.472;2023-04-19T01:07:52;11.70;;;11.10;;
3211;SDS011;1618;47.056;15.472;2023-04-19T01:10:22;12.37;;;11.63;;
3211;SDS011;1618;47.056;15.472;2023-04-19T01:12:50;12.83;;;12.13;;
3211;SDS011;1618;47.056;15.472;2023-04-19T01:15:21;12.47;;;11.97;;
3211;SDS011;1618;47.056;15.472;2023-04-19T01:17:54;14.67;;;13.80;;
3211;SDS011;1618;47.056;15.472;2023-04-19T01:20:25;14.80;;;13.90;;
3211;SDS011;1618;47.056;15.472;2023-04-19T01:22:57;14.80;;;14.10;;
3211;SDS011;1618;47.056;15.472;2023-04-19T01:25:28;14.17;;;13.47;;
3211;SDS011;1618;47.056;15.472;2023-04-19T01:27:55;15.50;;;14.77;;
3211;SDS011;1618;47.056;15.472;2023-04-19T01:30:23;16.60;;;15.80;;
3211;SDS011;1618;47.056;15.472;2023-04-19T01:32:51;15.60;;;14.87;;
3211;SDS011;1618;47.056;15.472;2023-04-19T01:35:18;15.00;;;14.20;;
3211;SDS011;1618;47.056;15.472;2023-04-19T01:37:46;16.20;;;15.40;;
3211;SDS011;1618;47.056;15.472;2023-04-19T01:40:17;15.90;;;15.10;;
3211;SDS011;1618;47.056;15.472;2023-04-19T01:42:45;16.33;;;15.53;;
3211;SDS011;1618;47.056;15.472;2023-04-19T01:45:13;16.80;;;15.90;;
3211;SDS011;1618;47.056;15.472;2023-04-19T01:47:40;16.23;;;15.37;;
3211;SDS011;1618;47.056;15.472;2023-04-19T01:50:08;16.80;;;15.90;;
3211;SDS011;1618;47.056;15.472;2023-04-19T01:52:35;16.37;;;15.47;;
3211;SDS011;1618;47.056;15.472;2023-04-19T01:55:03;15.57;;;14.63;;
3211;SDS011;1618;47.056;15.472;2023-04-19T01:57:31;15.50;;;14.53;;
3211;SDS011;1618;47.056;15.472;2023-04-19T02:00:00;15.17;;;14.37;;
3211;SDS011;1618;47.056;15.472;2023-04-19T02:02:27;15.23;;;14.43;;
3211;SDS011;1618;47.056;15.472;2023-04-19T02:04:56;15.40;;;14.60;;
3211;SDS011;1618;47.056;15.472;2023-04-19T02:07:23;16.33;;;15.43;;
3211;SDS011;1618;47.056;15.472;2023-04-19T02:09:53;17.20;;;16.30;;
3211;SDS011;1618;47.056;15.472;2023-04-19T02:12:20;17.00;;;16.10;;
3211;SDS011;1618;47.056;15.472;2023-04-19T02:14:49;16.07;;;15.27;;
3211;SDS011;1618;47.056;15.472;2023-04-19T02:17:16;15.57;;;14.67;;
3211;SDS011;1618;47.056;15.472;2023-04-19T02:19:43;14.13;;;13.43;;
3211;SDS011;1618;47.056;15.472;2023-04-19T02:22:11;13.53;;;12.63;;
3211;SDS011;1618;47.056;15.472;2023-04-19T02:24:39;13.03;;;12.43;;
3211;SDS011;1618;47.056;15.472;2023-04-19T02:27:07;12.50;;;11.90;;
3211;SDS011;1618;47.056;15.472;2023-04-19T02:29:35;13.03;;;12.17;;
3211;SDS011;1618;47.056;15.472;2023-04-19T02:32:03;13.33;;;12.63;;
3211;SDS011;1618;47.056;15.472;2023-04-19T02:34:31;12.43;;;11.73;;
3211;SDS011;1618;47.056;15.472;2023-04-19T02:36:58;11.80;;;11.20;;
3211;SDS011;1618;47.056;15.472;2023-04-19T02:39:27;10.87;;;10.37;;
3211;SDS011;1618;47.056;15.472;2023-04-19T02:41:55;10.47;;;9.97;;
3211;SDS011;1618;47.056;15.472;2023-04-19T02:44:22;10.03;;;9.63;;
3211;SDS011;1618;47.056;15.472;2023-04-19T02:46:53;10.50;;;10.00;;
3211;SDS011;1618;47.056;15.472;2023-04-19T02:49:24;9.93;;;9.33;;
3211;SDS011;1618;47.056;15.472;2023-04-19T02:51:54;9.43;;;8.83;;
3211;SDS011;1618;47.056;15.472;2023-04-19T02:54:21;8.40;;;7.90;;
3211;SDS011;1618;47.056;15.472;2023-04-19T02:56:49;8.90;;;8.40;;
3211;SDS011;1618;47.056;15.472;2023-04-19T02:59:16;8.67;;;7.97;;
3211;SDS011;1618;47.056;15.472;2023-04-19T03:01:44;8.33;;;7.63;;
3211;SDS011;1618;47.056;15.472;2023-04-19T03:04:11;8.47;;;7.80;;
3211;SDS011;1618;47.056;15.472;2023-04-19T03:06:42;7.30;;;6.90;;
3211;SDS011;1618;47.056;15.472;2023-04-19T03:09:12;7.40;;;6.90;;
3211;SDS011;1618;47.056;15.472;2023-04-19T03:11:39;6.90;;;6.30;;
3211;SDS011;1618;47.056;15.472;2023-04-19T03:14:08;6.83;;;6.40;;
3211;SDS011;1618;47.056;15.472;2023-04-19T03:16:35;7.00;;;6.70;;
3211;SDS011;1618;47.056;15.472;2023-04-19T03:19:03;6.60;;;6.30;;
3211;SDS011;1618;47.056;15.472;2023-04-19T03:21:31;6.30;;;6.00;;
3211;SDS011;1618;47.056;15.472;2023-04-19T03:24:00;6.80;;;6.30;;
3211;SDS011;1618;47.056;15.472;2023-04-19T03:26:27;6.30;;;6.00;;
3211;SDS011;1618;47.056;15.472;2023-04-19T03:28:54;6.10;;;5.70;;
3211;SDS011;1618;47.056;15.472;2023-04-19T03:31:23;6.80;;;6.20;;
3211;SDS011;1618;47.056;15.472;2023-04-19T03:33:51;6.97;;;6.57;;
3211;SDS011;1618;47.056;15.472;2023-04-19T03:36:20;7.10;;;6.40;;
3211;SDS011;1618;47.056;15.472;2023-04-19T03:38:48;6.23;;;5.93;;
3211;SDS011;1618;47.056;15.472;2023-04-19T03:41:19;7.47;;;6.90;;
3211;SDS011;1618;47.056;15.472;2023-04-19T03:43:48;7.23;;;6.83;;
3211;SDS011;1618;47.056;15.472;2023-04-19T03:46:15;5.97;;;5.67;;
3211;SDS011;1618;47.056;15.472;2023-04-19T03:48:44;7.27;;;6.80;;
3211;SDS011;1618;47.056;15.472;2023-04-19T03:51:12;7.33;;;6.93;;
3211;SDS011;1618;47.056;15.472;2023-04-19T03:53:41;6.60;;;6.20;;
3211;SDS011;1618;47.056;15.472;2023-04-19T03:56:08;7.83;;;7.13;;
3211;SDS011;1618;47.056;15.472;2023-04-19T03:58:42;8.27;;;7.57;;
3211;SDS011;1618;47.056;15.472;2023-04-19T04:01:16;7.10;;;6.73;;
3211;SDS011;1618;47.056;15.472;2023-04-19T04:03:48;7.30;;;6.90;;
3211;SDS011;1618;47.056;15.472;2023-04-19T04:06:15;5.80;;;5.50;;
3211;SDS011;1618;47.056;15.472;2023-04-19T04:08:44;6.33;;;6.03;;
3211;SDS011;1618;47.056;15.472;2023-04-19T04:11:13;6.87;;;6.47;;
3211;SDS011;1618;47.056;15.472;2023-04-19T04:13:44;6.37;;;5.77;;
3211;SDS011;1618;47.056;15.472;2023-04-19T04:16:14;7.10;;;6.47;;
3211;SDS011;1618;47.056;15.472;2023-04-19T04:18:43;8.13;;;7.37;;
3211;SDS011;1618;47.056;15.472;2023-04-19T04:21:11;8.77;;;7.97;;
3211;SDS011;1618;47.056;15.472;2023-04-19T04:23:39;10.93;;;9.87;;
3211;SDS011;1618;47.056;15.472;2023-04-19T04:26:09;9.57;;;8.60;;
3211;SDS011;1618;47.056;15.472;2023-04-19T04:28:39;12.53;;;9.37;;
3211;SDS011;1618;47.056;15.472;2023-04-19T04:31:07;9.83;;;8.87;;
3211;SDS011;1618;47.056;15.472;2023-04-19T04:33:37;12.03;;;8.83;;
3211;SDS011;1618;47.056;15.472;2023-04-19T04:36:06;8.90;;;8.20;;
3211;SDS011;1618;47.056;15.472;2023-04-19T04:38:37;7.93;;;7.30;;
3211;SDS011;1618;47.056;15.472;2023-04-19T04:41:06;7.50;;;6.90;;
3211;SDS011;1618;47.056;15.472;2023-04-19T04:43:34;8.07;;;7.43;;
3211;SDS011;1618;47.056;15.472;2023-04-19T04:46:03;7.87;;;7.17;;
3211;SDS011;1618;47.056;15.472;2023-04-19T04:48:32;7.00;;;6.37;;
3211;SDS011;1618;47.056;15.472;2023-04-19T04:51:01;6.67;;;6.17;;
3211;SDS011;1618;47.056;15.472;2023-04-19T04:53:29;6.53;;;6.13;;
3211;SDS011;1618;47.056;15.472;2023-04-19T04:56:02;5.87;;;5.40;;
3211;SDS011;1618;47.056;15.472;2023-04-19T04:58:31;5.93;;;5.53;;
3211;SDS011;1618;47.056;15.472;2023-04-19T05:00:59;5.47;;;5.17;;
3211;SDS011;1618;47.056;15.472;2023-04-19T05:03:28;7.20;;;6.60;;
3211;SDS011;1618;47.056;15.472;2023-04-19T05:06:00;6.40;;;5.80;;
3211;SDS011;1618;47.056;15.472;2023-04-19T05:08:28;6.00;;;5.50;;
3211;SDS011;1618;47.056;15.472;2023-04-19T05:10:57;6.93;;;6.23;;
3211;SDS011;1618;47.056;15.472;2023-04-19T05:13:26;5.57;;;5.27;;
3211;SDS011;1618;47.056;15.472;2023-04-19T05:15:53;6.40;;;5.90;;
3211;SDS011;1618;47.056;15.472;2023-04-19T05:18:26;6.77;;;6.17;;
3211;SDS011;1618;47.056;15.472;2023-04-19T05:20:53;6.90;;;6.20;;
3211;SDS011;1618;47.056;15.472;2023-04-19T05:23:22;7.40;;;6.70;;
3211;SDS011;1618;47.056;15.472;2023-04-19T05:25:49;6.43;;;5.93;;
3211;SDS011;1618;47.056;15.472;2023-04-19T05:28:16;6.83;;;6.20;;
3211;SDS011;1618;47.056;15.472;2023-04-19T05:30:44;7.03;;;6.43;;
3211;SDS011;1618;47.056;15.472;2023-04-19T05:33:12;8.20;;;6.90;;
3211;SDS011;1618;47.056;15.472;2023-04-19T05:35:39;7.10;;;6.50;;
3211;SDS011;1618;47.056;15.472;2023-04-19T05:38:07;7.10;;;6.50;;
3211;SDS011;1618;47.056;15.472;2023-04-19T05:40:36;7.40;;;6.90;;
3211;SDS011;1618;47.056;15.472;2023-04-19T05:43:07;8.13;;;7.63;;
3211;SDS011;1618;47.056;15.472;2023-04-19T05:45:34;8.83;;;8.23;;
3211;SDS011;1618;47.056;15.472;2023-04-19T05:48:05;8.20;;;7.80;;
3211;SDS011;1618;47.056;15.472;2023-04-19T05:50:33;9.37;;;8.60;;
3211;SDS011;1618;47.056;15.472;2023-04-19T05:53:01;10.30;;;9.60;;
3211;SDS011;1618;47.056;15.472;2023-04-19T05:55:29;11.40;;;10.23;;
3211;SDS011;1618;47.056;15.472;2023-04-19T05:57:58;14.37;;;13.50;;
3211;SDS011;1618;47.056;15.472;2023-04-19T06:00:26;16.70;;;15.70;;
3211;SDS011;1618;47.056;15.472;2023-04-19T06:02:54;16.90;;;15.90;;
3211;SDS011;1618;47.056;15.472;2023-04-19T06:05:21;16.97;;;16.07;;
3211;SDS011;1618;47.056;15.472;2023-04-19T06:07:50;19.17;;;18.07;;
3211;SDS011;1618;47.056;15.472;2023-04-19T06:10:22;21.33;;;19.83;;
3211;SDS011;1618;47.056;15.472;2023-04-19T06:12:51;23.60;;;22.20;;
3211;SDS011;1618;47.056;15.472;2023-04-19T06:15:21;26.20;;;24.50;;
3211;SDS011;1618;47.056;15.472;2023-04-19T06:17:51;27.30;;;25.40;;
3211;SDS011;1618;47.056;15.472;2023-04-19T06:20:20;28.77;;;26.70;;
3211;SDS011;1618;47.056;15.472;2023-04-19T06:22:48;26.57;;;24.87;;
3211;SDS011;1618;47.056;15.472;2023-04-19T06:25:16;29.37;;;26.60;;
3211;SDS011;1618;47.056;15.472;2023-04-19T06:27:44;29.60;;;27.60;;
3211;SDS011;1618;47.056;15.472;2023-04-19T06:30:14;28.90;;;26.97;;
3211;SDS011;1618;47.056;15.472;2023-04-19T06:32:45;30.07;;;28.00;;
3211;SDS011;1618;47.056;15.472;2023-04-19T06:35:12;31.60;;;29.50;;
3211;SDS011;1618;47.056;15.472;2023-04-19T06:37:39;31.30;;;28.83;;
3211;SDS011;1618;47.056;15.472;2023-04-19T06:40:08;29.67;;;27.47;;
3211;SDS011;1618;47.056;15.472;2023-04-19T06:42:36;28.93;;;26.83;;
3211;SDS011;1618;47.056;15.472;2023-04-19T06:45:05;29.80;;;27.40;;
3211;SDS011;1618;47.056;15.472;2023-04-19T06:47:37;28.60;;;26.40;;
3211;SDS011;1618;47.056;15.472;2023-04-19T06:50:07;28.13;;;25.67;;
3211;SDS011;1618;47.056;15.472;2023-04-19T06:52:36;30.27;;;27.27;;
3211;SDS011;1618;47.056;15.472;2023-04-19T06:55:05;31.30;;;28.50;;
3211;SDS011;1618;47.056;15.472;2023-04-19T06:57:32;30.27;;;27.77;;
3211;SDS011;1618;47.056;15.472;2023-04-19T07:00:00;30.30;;;27.70;;
3211;SDS011;1618;47.056;15.472;2023-04-19T07:02:27;29.20;;;26.90;;
3211;SDS011;1618;47.056;15.472;2023-04-19T07:04:57;30.00;;;27.57;;
3211;SDS011;1618;47.056;15.472;2023-04-19T07:07:32;28.87;;;26.53;;
3211;SDS011;1618;47.056;15.472;2023-04-19T07:10:04;28.83;;;26.43;;
3211;SDS011;1618;47.056;15.472;2023-04-19T07:12:32;27.87;;;25.57;;
3211;SDS011;1618;47.056;15.472;2023-04-19T07:15:06;31.37;;;26.80;;
3211;SDS011;1618;47.056;15.472;2023-04-19T07:17:35;28.70;;;26.20;;
3211;SDS011;1618;47.056;15.472;2023-04-19T07:20:04;29.73;;;26.60;;
3211;SDS011;1618;47.056;15.472;2023-04-19T07:22:36;29.03;;;26.63;;
3211;SDS011;1618;47.056;15.472;2023-04-19T07:25:06;30.37;;;27.97;;
3211;SDS011;1618;47.056;15.472;2023-04-19T07:27:33;30.77;;;28.23;;
3211;SDS011;1618;47.056;15.472;2023-04-19T07:30:01;29.47;;;26.97;;
3211;SDS011;1618;47.056;15.472;2023-04-19T07:32:29;30.00;;;27.30;;
3211;SDS011;1618;47.056;15.472;2023-04-19T07:34:58;30.97;;;27.70;;
3211;SDS011;1618;47.056;15.472;2023-04-19T07:37:28;31.03;;;28.33;;
3211;SDS011;1618;47.056;15.472;2023-04-19T07:39:58;28.83;;;26.33;;
3211;SDS011;1618;47.056;15.472;2023-04-19T07:42:25;28.77;;;26.30;;
3211;SDS011;1618;47.056;15.472;2023-04-19T07:44:54;29.23;;;26.53;;
3211;SDS011;1618;47.056;15.472;2023-04-19T07:47:23;28.97;;;26.47;;
3211;SDS011;1618;47.056;15.472;2023-04-19T07:49:51;31.30;;;28.13;;
3211;SDS011;1618;47.056;15.472;2023-04-19T07:52:19;30.70;;;27.90;;
3211;SDS011;1618;47.056;15.472;2023-04-19T07:54:50;29.63;;;27.07;;
3211;SDS011;1618;47.056;15.472;2023-04-19T07:57:20;31.47;;;29.07;;
3211;SDS011;1618;47.056;15.472;2023-04-19T07:59:48;31.93;;;29.53;;
3211;SDS011;1618;47.056;15.472;2023-04-19T08:02:18;31.30;;;28.90;;
3211;SDS011;1618;47.056;15.472;2023-04-19T08:04:46;29.90;;;27.40;;
3211;SDS011;1618;47.056;15.472;2023-04-19T08:07:16;31.30;;;28.80;;
3211;SDS011;1618;47.056;15.472;2023-04-19T08:09:46;30.70;;;28.10;;
3211;SDS011;1618;47.056;15.472;2023-04-19T08:12:16;30.20;;;27.60;;
3211;SDS011;1618;47.056;15.472;2023-04-19T08:14:47;31.00;;;28.30;;
3211;SDS011;1618;47.056;15.472;2023-04-19T08:17:20;30.67;;;27.77;;
3211;SDS011;1618;47.056;15.472;2023-04-19T08:19:48;30.47;;;27.77;;
3211;SDS011;1618;47.056;15.472;2023-04-19T08:22:16;32.97;;;30.17;;
3211;SDS011;1618;47.056;15.472;2023-04-19T08:24:44;29.50;;;26.90;;
3211;SDS011;1618;47.056;15.472;2023-04-19T08:27:13;29.80;;;27.20;;
3211;SDS011;1618;47.056;15.472;2023-04-19T08:29:42;29.47;;;26.87;;
3211;SDS011;1618;47.056;15.472;2023-04-19T08:32:13;29.97;;;27.17;;
3211;SDS011;1618;47.056;15.472;2023-04-19T08:34:43;29.60;;;26.90;;
3211;SDS011;1618;47.056;15.472;2023-04-19T08:37:10;30.00;;;27.20;;
3211;SDS011;1618;47.056;15.472;2023-04-19T08:39:38;29.23;;;26.53;;
3211;SDS011;1618;47.056;15.472;2023-04-19T08:42:07;30.90;;;27.97;;
3211;SDS011;1618;47.056;15.472;2023-04-19T08:44:35;31.03;;;28.00;;
3211;SDS011;1618;47.056;15.472;2023-04-19T08:47:05;29.60;;;26.80;;
3211;SDS011;1618;47.056;15.472;2023-04-19T08:49:35;31.10;;;28.20;;
3211;SDS011;1618;47.056;15.472;2023-04-19T08:52:02;32.50;;;29.60;;
3211;SDS011;1618;47.056;15.472;2023-04-19T08:54:31;30.53;;;27.77;;
3211;SDS011;1618;47.056;15.472;2023-04-19T08:56:59;31.73;;;28.83;;
3211;SDS011;1618;47.056;15.472;2023-04-19T08:59:32;31.57;;;28.77;;
3211;SDS011;1618;47.056;15.472;2023-04-19T09:02:00;30.70;;;27.90;;
3211;SDS011;1618;47.056;15.472;2023-04-19T09:04:27;31.53;;;28.53;;
3211;SDS011;1618;47.056;15.472;2023-04-19T09:06:57;32.20;;;29.20;;
3211;SDS011;1618;47.056;15.472;2023-04-19T09:09:25;31.30;;;28.33;;
3211;SDS011;1618;47.056;15.472;2023-04-19T09:11:53;33.43;;;28.80;;
3211;SDS011;1618;47.056;15.472;2023-04-19T09:14:23;31.43;;;28.47;;
3211;SDS011;1618;47.056;15.472;2023-04-19T09:16:51;31.80;;;28.80;;
3211;SDS011;1618;47.056;15.472;2023-04-19T09:19:20;31.60;;;28.70;;
3211;SDS011;1618;47.056;15.472;2023-04-19T09:21:48;31.73;;;28.77;;
3211;SDS011;1618;47.056;15.472;2023-04-19T09:24:18;34.90;;;31.90;;
3211;SDS011;1618;47.056;15.472;2023-04-19T09:26:52;32.17;;;29.07;;
3211;SDS011;1618;47.056;15.472;2023-04-19T09:29:22;31.90;;;28.80;;
3211;SDS011;1618;47.056;15.472;2023-04-19T09:31:57;32.37;;;29.47;;
3211;SDS011;1618;47.056;15.472;2023-04-19T09:34:25;32.03;;;29.03;;
3211;SDS011;1618;47.056;15.472;2023-04-19T09:36:56;31.67;;;28.77;;
3211;SDS011;1618;47.056;15.472;2023-04-19T09:39:31;31.93;;;28.83;;
3211;SDS011;1618;47.056;15.472;2023-04-19T09:42:01;31.10;;;28.13;;
3211;SDS011;1618;47.056;15.472;2023-04-19T09:44:28;32.20;;;29.00;;
3211;SDS011;1618;47.056;15.472;2023-04-19T09:46:58;31.23;;;28.13;;
3211;SDS011;1618;47.056;15.472;2023-04-19T09:49:25;32.33;;;29.20;;
3211;SDS011;1618;47.056;15.472;2023-04-19T09:51:54;31.10;;;28.13;;
3211;SDS011;1618;47.056;15.472;2023-04-19T09:54:22;30.90;;;28.10;;
3211;SDS011;1618;47.056;15.472;2023-04-19T09:56:54;32.37;;;29.47;;
3211;SDS011;1618;47.056;15.472;2023-04-19T09:59:21;31.30;;;28.30;;
3211;SDS011;1618;47.056;15.472;2023-04-19T10:01:51;31.60;;;28.70;;
3211;SDS011;1618;47.056;15.472;2023-04-19T10:04:20;32.30;;;29.20;;
3211;SDS011;1618;47.056;15.472;2023-04-19T10:06:48;30.90;;;28.20;;
3211;SDS011;1618;47.056;15.472;2023-04-19T10:09:16;31.13;;;28.33;;
3211;SDS011;1618;47.056;15.472;2023-04-19T10:11:47;33.10;;;29.90;;
3211;SDS011;1618;47.056;15.472;2023-04-19T10:14:17;32.70;;;29.60;;
3211;SDS011;1618;47.056;15.472;2023-04-19T10:16:47;31.33;;;28.37;;
3211;SDS011;1618;47.056;15.472;2023-04-19T10:19:18;43.40;;;29.00;;
3211;SDS011;1618;47.056;15.472;2023-04-19T10:21:47;31.47;;;28.57;;
3211;SDS011;1618;47.056;15.472;2023-04-19T10:24:17;33.57;;;30.30;;
3211;SDS011;1618;47.056;15.472;2023-04-19T10:32:24;30.90;;;28.20;;
3211;SDS011;1618;47.056;15.472;2023-04-19T10:34:52;31.83;;;29.13;;
3211;SDS011;1618;47.056;15.472;2023-04-19T10:37:24;32.20;;;29.40;;
3211;SDS011;1618;47.056;15.472;2023-04-19T10:39:51;31.60;;;28.40;;
3211;SDS011;1618;47.056;15.472;2023-04-19T10:42:21;32.47;;;29.37;;
3211;SDS011;1618;47.056;15.472;2023-04-19T10:47:42;31.80;;;28.90;;
3211;SDS011;1618;47.056;15.472;2023-04-19T10:50:09;32.50;;;29.70;;
3211;SDS011;1618;47.056;15.472;2023-04-19T10:52:37;31.77;;;28.83;;
3211;SDS011;1618;47.056;15.472;2023-04-19T10:55:06;31.60;;;28.60;;
3211;SDS011;1618;47.056;15.472;2023-04-19T11:00:19;31.70;;;28.80;;
3211;SDS011;1618;47.056;15.472;2023-04-19T11:02:48;32.37;;;28.33;;
3211;SDS011;1618;47.056;15.472;2023-04-19T11:05:17;31.27;;;28.50;;
3211;SDS011;1618;47.056;15.472;2023-04-19T11:07:45;31.30;;;28.40;;
3211;SDS011;1618;47.056;15.472;2023-04-19T11:10:13;31.23;;;28.40;;
3211;SDS011;1618;47.056;15.472;2023-04-19T11:12:53;29.40;;;26.73;;
3211;SDS011;1618;47.056;15.472;2023-04-19T11:15:22;30.60;;;27.80;;
3211;SDS011;1618;47.056;15.472;2023-04-19T11:17:50;30.73;;;28.10;;
3211;SDS011;1618;47.056;15.472;2023-04-19T11:20:20;29.97;;;27.07;;
3211;SDS011;1618;47.056;15.472;2023-04-19T11:22:49;32.33;;;29.63;;
3211;SDS011;1618;47.056;15.472;2023-04-19T11:25:17;30.73;;;28.23;;
3211;SDS011;1618;47.056;15.472;2023-04-19T11:27:51;30.37;;;27.57;;
3211;SDS011;1618;47.056;15.472;2023-04-19T11:30:21;28.70;;;26.57;;
3211;SDS011;1618;47.056;15.472;2023-04-19T11:32:52;28.77;;;26.47;;
3211;SDS011;1618;47.056;15.472;2023-04-19T11:35:22;28.30;;;26.00;;
3211;SDS011;1618;47.056;15.472;2023-04-19T11:37:51;24.93;;;23.23;;
3211;SDS011;1618;47.056;15.472;2023-04-19T11:40:20;24.50;;;22.70;;
3211;SDS011;1618;47.056;15.472;2023-04-19T11:42:52;22.37;;;20.70;;
3211;SDS011;1618;47.056;15.472;2023-04-19T11:45:25;18.60;;;17.50;;
3211;SDS011;1618;47.056;15.472;2023-04-19T11:47:56;19.17;;;17.97;;
3211;SDS011;1618;47.056;15.472;2023-04-19T11:50:34;18.60;;;17.40;;
3211;SDS011;1618;47.056;15.472;2023-04-19T11:53:14;19.63;;;18.13;;
3211;SDS011;1618;47.056;15.472;2023-04-19T11:55:45;18.30;;;16.93;;
3211;SDS011;1618;47.056;15.472;2023-04-19T11:58:23;16.83;;;15.63;;
3211;SDS011;1618;47.056;15.472;2023-04-19T12:00:53;15.20;;;14.20;;
3211;SDS011;1618;47.056;15.472;2023-04-19T12:03:22;14.37;;;13.17;;
3211;SDS011;1618;47.056;15.472;2023-04-19T12:05:53;13.87;;;12.67;;
3211;SDS011;1618;47.056;15.472;2023-04-19T12:08:30;13.17;;;12.20;;
3211;SDS011;1618;47.056;15.472;2023-04-19T12:10:58;13.27;;;12.07;;
3211;SDS011;1618;47.056;15.472;2023-04-19T12:13:26;14.60;;;12.03;;
3211;SDS011;1618;47.056;15.472;2023-04-19T12:15:54;13.67;;;12.50;;
3211;SDS011;1618;47.056;15.472;2023-04-19T12:18:23;11.60;;;10.80;;
3211;SDS011;1618;47.056;15.472;2023-04-19T12:20:51;12.17;;;11.13;;
3211;SDS011;1618;47.056;15.472;2023-04-19T12:23:20;12.30;;;11.20;;
3211;SDS011;1618;47.056;15.472;2023-04-19T12:25:47;14.50;;;13.33;;
3211;SDS011;1618;47.056;15.472;2023-04-19T12:28:15;15.23;;;12.40;;
3211;SDS011;1618;47.056;15.472;2023-04-19T12:30:42;12.13;;;11.10;;
3211;SDS011;1618;47.056;15.472;2023-04-19T12:33:11;14.80;;;11.97;;
3211;SDS011;1618;47.056;15.472;2023-04-19T12:35:40;12.27;;;11.17;;
3211;SDS011;1618;47.056;15.472;2023-04-19T12:38:10;14.83;;;11.90;;
3211;SDS011;1618;47.056;15.472;2023-04-19T12:40:37;11.93;;;10.93;;
3211;SDS011;1618;47.056;15.472;2023-04-19T12:43:05;11.57;;;10.57;;
3211;SDS011;1618;47.056;15.472;2023-04-19T12:45:33;14.00;;;12.90;;
3211;SDS011;1618;47.056;15.472;2023-04-19T12:48:00;14.43;;;13.53;;
3211;SDS011;1618;47.056;15.472;2023-04-19T12:50:28;19.20;;;18.03;;
3211;SDS011;1618;47.056;15.472;2023-04-19T12:52:57;22.40;;;20.60;;
3211;SDS011;1618;47.056;15.472;2023-04-19T12:55:26;24.53;;;22.90;;
3211;SDS011;1618;47.056;15.472;2023-04-19T12:57:53;30.00;;;28.03;;
3211;SDS011;1618;47.056;15.472;2023-04-19T13:00:23;28.93;;;27.03;;
3211;SDS011;1618;47.056;15.472;2023-04-19T13:02:50;28.87;;;26.60;;
3211;SDS011;1618;47.056;15.472;2023-04-19T13:05:18;29.90;;;27.80;;
3211;SDS011;1618;47.056;15.472;2023-04-19T13:07:45;30.20;;;27.60;;
3211;SDS011;1618;47.056;15.472;2023-04-19T13:10:14;30.53;;;28.13;;
3211;SDS011;1618;47.056;15.472;2023-04-19T13:12:41;35.00;;;32.50;;
3211;SDS011;1618;47.056;15.472;2023-04-19T13:15:09;32.67;;;29.77;;
3211;SDS011;1618;47.056;15.472;2023-04-19T13:17:36;32.17;;;29.57;;
3211;SDS011;1618;47.056;15.472;2023-04-19T13:20:05;34.90;;;32.30;;
3211;SDS011;1618;47.056;15.472;2023-04-19T13:22:32;33.83;;;31.23;;
3211;SDS011;1618;47.056;15.472;2023-04-19T13:25:00;31.67;;;28.60;;
3211;SDS011;1618;47.056;15.472;2023-04-19T13:27:32;30.80;;;28.20;;
3211;SDS011;1618;47.056;15.472;2023-04-19T13:29:59;33.80;;;30.70;;
3211;SDS011;1618;47.056;15.472;2023-04-19T13:32:28;34.37;;;31.20;;
3211;SDS011;1618;47.056;15.472;2023-04-19T13:34:56;33.17;;;30.27;;
3211;SDS011;1618;47.056;15.472;2023-04-19T13:37:25;31.73;;;28.87;;
3211;SDS011;1618;47.056;15.472;2023-04-19T13:39:52;34.23;;;31.50;;
3211;SDS011;1618;47.056;15.472;2023-04-19T13:42:19;32.93;;;30.13;;
3211;SDS011;1618;47.056;15.472;2023-04-19T13:44:50;33.17;;;30.10;;
3211;SDS011;1618;47.056;15.472;2023-04-19T13:47:19;33.20;;;30.10;;
3211;SDS011;1618;47.056;15.472;2023-04-19T13:49:49;32.60;;;29.90;;
3211;SDS011;1618;47.056;15.472;2023-04-19T13:52:18;32.87;;;30.07;;
3211;SDS011;1618;47.056;15.472;2023-04-19T13:54:47;34.03;;;31.27;;
3211;SDS011;1618;47.056;15.472;2023-04-19T13:57:18;32.93;;;30.27;;
3211;SDS011;1618;47.056;15.472;2023-04-19T13:59:51;34.87;;;31.87;;
3211;SDS011;1618;47.056;15.472;2023-04-19T14:02:18;32.00;;;29.07;;
3211;SDS011;1618;47.056;15.472;2023-04-19T14:04:50;32.90;;;29.00;;
3211;SDS011;1618;47.056;15.472;2023-04-19T14:07:19;33.03;;;29.43;;
3211;SDS011;1618;47.056;15.472;2023-04-19T14:09:47;32.80;;;29.70;;
3211;SDS011;1618;47.056;15.472;2023-04-19T14:12:17;31.90;;;29.00;;
3211;SDS011;1618;47.056;15.472;2023-04-19T14:14:54;32.10;;;29.10;;
3211;SDS011;1618;47.056;15.472;2023-04-19T14:17:22;30.27;;;27.40;;
3211;SDS011;1618;47.056;15.472;2023-04-19T14:19:50;32.40;;;29.20;;
3211;SDS011;1618;47.056;15.472;2023-04-19T14:22:18;31.57;;;28.60;;
3211;SDS011;1618;47.056;15.472;2023-04-19T14:24:47;31.40;;;28.70;;
3211;SDS011;1618;47.056;15.472;2023-04-19T14:27:21;33.00;;;30.00;;
3211;SDS011;1618;47.056;15.472;2023-04-19T14:29:49;31.80;;;28.90;;
3211;SDS011;1618;47.056;15.472;2023-04-19T14:32:21;34.63;;;31.63;;
3211;SDS011;1618;47.056;15.472;2023-04-19T14:34:58;31.57;;;28.67;;
3211;SDS011;1618;47.056;15.472;2023-04-19T14:37:27;32.67;;;29.47;;
3211;SDS011;1618;47.056;15.472;2023-04-19T14:39:54;30.70;;;27.90;;
3211;SDS011;1618;47.056;15.472;2023-04-19T14:42:22;32.50;;;29.50;;
3211;SDS011;1618;47.056;15.472;2023-04-19T14:44:50;32.27;;;29.37;;
3211;SDS011;1618;47.056;15.472;2023-04-19T14:47:18;31.37;;;28.47;;
3211;SDS011;1618;47.056;15.472;2023-04-19T14:49:48;32.20;;;29.10;;
3211;SDS011;1618;47.056;15.472;2023-04-19T14:52:17;30.83;;;27.20;;
3211;SDS011;1618;47.056;15.472;2023-04-19T14:54:46;30.30;;;27.50;;
3211;SDS011;1618;47.056;15.472;2023-04-19T14:57:14;31.23;;;28.23;;
3211;SDS011;1618;47.056;15.472;2023-04-19T14:59:44;30.60;;;27.90;;
3211;SDS011;1618;47.056;15.472;2023-04-19T15:02:11;31.63;;;28.77;;